Time;durP1;ratioP1;P1;durP2;ratioP2;P2;SDS_P1;SDS_P2;PMS_P1;PMS_P2;Temp;Humidity;BMP_temperature;BMP_pressure;BME280_temperature;BME280_humidity;BME280_pressure;Samples;Min_cycle;Max_cycle;Signal;HPM_P1;HPM_P2
2023/05/12 00:00:13;;;;;;;35.17;23.77;;;13.90;99.90;;;;;;4988176;28;20456;-55
2023/05/12 00:02:39;;;;;;;31.05;22.30;;;13.80;99.90;;;;;;5004392;28;20528;-56
2023/05/12 00:05:06;;;;;;;27.75;21.80;;;13.60;99.90;;;;;;5008068;28;20034;-56
2023/05/12 00:07:31;;;;;;;28.52;21.25;;;13.50;99.90;;;;;;5004468;28;20084;-56
2023/05/12 00:09:57;;;;;;;31.25;21.27;;;13.50;99.90;;;;;;5010067;28;20033;-56
2023/05/12 00:12:22;;;;;;;28.85;21.10;;;13.40;99.90;;;;;;5013539;28;20037;-56
2023/05/12 00:14:48;;;;;;;27.38;21.45;;;13.50;99.90;;;;;;5005968;28;20041;-56
2023/05/12 00:17:13;;;;;;;26.27;19.75;;;13.40;99.90;;;;;;5008405;28;20049;-56
2023/05/12 00:19:42;;;;;;;29.65;20.83;;;13.40;99.90;;;;;;5001964;28;20037;-56
2023/05/12 00:22:08;;;;;;;27.90;20.80;;;13.30;99.90;;;;;;4998689;28;20033;-56
2023/05/12 00:24:34;;;;;;;27.75;19.67;;;13.40;99.90;;;;;;5002714;28;20107;-56
2023/05/12 00:27:00;;;;;;;27.30;19.75;;;13.40;99.90;;;;;;5005817;28;20029;-56
2023/05/12 00:29:25;;;;;;;26.80;19.88;;;13.40;99.90;;;;;;4991431;28;20110;-56
2023/05/12 00:31:51;;;;;;;27.27;19.65;;;13.20;99.90;;;;;;5011586;28;20718;-55
2023/05/12 00:34:16;;;;;;;27.70;19.88;;;13.20;99.90;;;;;;5006684;28;20043;-55
2023/05/12 00:36:42;;;;;;;24.63;17.73;;;13.30;99.90;;;;;;5001526;28;20040;-55
2023/05/12 00:39:07;;;;;;;26.17;18.95;;;13.20;99.90;;;;;;4997781;28;20053;-55
2023/05/12 00:41:33;;;;;;;25.35;19.58;;;13.20;99.90;;;;;;5000565;28;20038;-55
2023/05/12 00:43:58;;;;;;;21.88;16.48;;;13.20;99.90;;;;;;5005253;28;20044;-55
2023/05/12 00:46:24;;;;;;;22.35;16.38;;;13.20;99.90;;;;;;5002273;28;20072;-55
2023/05/12 00:48:50;;;;;;;18.23;14.30;;;13.20;99.90;;;;;;4998088;28;20041;-55
2023/05/12 00:51:16;;;;;;;15.90;13.18;;;13.20;99.90;;;;;;5004934;28;20034;-56
2023/05/12 00:53:42;;;;;;;18.38;13.13;;;13.00;99.90;;;;;;4997828;28;20046;-55
2023/05/12 00:56:10;;;;;;;19.38;13.60;;;13.10;99.90;;;;;;5001968;28;20084;-55
2023/05/12 00:58:36;;;;;;;16.05;12.20;;;13.20;99.90;;;;;;5001294;28;20072;-55
2023/05/12 01:01:01;;;;;;;13.80;10.20;;;13.20;99.90;;;;;;5004803;28;20057;-53
2023/05/12 01:03:28;;;;;;;13.70;10.05;;;13.00;99.90;;;;;;5013074;28;20107;-55
2023/05/12 01:06:11;;;;;;;13.48;10.00;;;13.00;99.90;;;;;;5001628;28;20044;-55
2023/05/12 01:08:37;;;;;;;13.30;9.52;;;13.10;99.90;;;;;;5005891;28;20087;-55
2023/05/12 01:11:03;;;;;;;10.30;8.63;;;13.00;99.90;;;;;;5002963;28;20101;-55
2023/05/12 01:13:29;;;;;;;10.30;8.10;;;13.00;99.90;;;;;;5005657;28;20885;-55
2023/05/12 01:15:57;;;;;;;10.18;8.07;;;13.00;99.90;;;;;;4997911;28;20022;-55
2023/05/12 01:18:25;;;;;;;10.77;8.35;;;13.10;99.90;;;;;;4979459;28;20045;-55
2023/05/12 01:20:54;;;;;;;9.85;7.50;;;13.00;99.90;;;;;;5006883;28;20036;-56
2023/05/12 01:23:23;;;;;;;9.80;7.45;;;13.00;99.90;;;;;;4998545;28;20358;-55
2023/05/12 01:25:49;;;;;;;11.63;8.32;;;12.90;99.90;;;;;;4995342;28;20512;-55
2023/05/12 01:28:17;;;;;;;11.00;8.00;;;12.90;99.90;;;;;;5008491;28;20026;-55
2023/05/12 01:30:43;;;;;;;9.35;7.55;;;12.90;99.90;;;;;;4999262;28;20053;-55
2023/05/12 01:33:09;;;;;;;11.20;7.03;;;12.90;99.90;;;;;;5007557;28;20113;-55
2023/05/12 01:35:35;;;;;;;9.02;6.90;;;12.90;99.90;;;;;;5004138;28;20557;-54
2023/05/12 01:38:00;;;;;;;8.48;6.15;;;12.80;99.90;;;;;;5015091;28;20124;-55
2023/05/12 01:40:26;;;;;;;8.80;6.13;;;12.80;99.90;;;;;;5004583;28;20037;-55
2023/05/12 01:42:52;;;;;;;9.57;6.63;;;12.80;99.90;;;;;;5008067;28;20030;-55
2023/05/12 01:45:17;;;;;;;8.00;6.07;;;12.90;99.90;;;;;;5003612;28;20068;-55
2023/05/12 01:47:43;;;;;;;8.52;6.32;;;12.90;99.90;;;;;;5011537;28;20033;-55
2023/05/12 01:50:09;;;;;;;12.85;8.57;;;12.90;99.90;;;;;;5004292;28;20037;-55
2023/05/12 01:52:35;;;;;;;13.20;8.30;;;13.20;99.90;;;;;;5010883;28;20034;-55
2023/05/12 01:55:01;;;;;;;15.55;10.38;;;12.90;99.90;;;;;;5001526;28;20074;-55
2023/05/12 01:57:26;;;;;;;14.98;10.25;;;12.80;99.90;;;;;;5007586;28;20409;-55
2023/05/12 01:59:52;;;;;;;21.45;13.60;;;12.80;99.90;;;;;;5014093;28;20030;-55
2023/05/12 02:02:17;;;;;;;24.48;15.40;;;12.80;99.90;;;;;;5007658;28;20462;-56
2023/05/12 02:04:43;;;;;;;28.50;18.13;;;12.90;99.90;;;;;;5015114;28;20518;-55
2023/05/12 02:07:09;;;;;;;31.42;19.05;;;13.00;99.90;;;;;;5006877;28;20037;-55
2023/05/12 02:09:35;;;;;;;34.53;20.85;;;12.90;99.90;;;;;;5006159;28;20034;-55
2023/05/12 02:12:01;;;;;;;36.10;22.15;;;12.90;99.90;;;;;;5016361;28;20299;-55
2023/05/12 02:14:26;;;;;;;41.80;24.90;;;13.10;99.90;;;;;;5004913;28;20042;-55
2023/05/12 02:16:54;;;;;;;42.67;25.33;;;13.00;99.90;;;;;;4999211;28;20044;-55
2023/05/12 02:19:20;;;;;;;47.22;27.55;;;13.20;99.90;;;;;;5013710;28;20029;-55
2023/05/12 02:21:46;;;;;;;50.33;29.60;;;13.00;99.90;;;;;;5006803;28;20473;-55
2023/05/12 02:24:11;;;;;;;51.53;29.38;;;13.10;99.90;;;;;;5005563;28;20358;-56
2023/05/12 02:26:37;;;;;;;57.88;31.77;;;13.50;99.90;;;;;;4988207;28;20062;-55
2023/05/12 02:29:02;;;;;;;51.28;29.88;;;13.40;99.90;;;;;;5004340;28;20385;-56
2023/05/12 02:31:28;;;;;;;49.83;30.73;;;13.40;99.90;;;;;;5010449;28;20516;-55
2023/05/12 02:33:53;;;;;;;55.95;32.00;;;13.60;99.90;;;;;;5015891;28;20181;-56
2023/05/12 02:36:19;;;;;;;52.63;30.88;;;13.50;99.90;;;;;;4999213;28;20030;-56
2023/05/12 02:38:45;;;;;;;52.67;32.25;;;13.50;99.90;;;;;;5001865;28;20091;-56
2023/05/12 02:41:10;;;;;;;54.00;32.42;;;13.50;99.90;;;;;;5004438;28;20489;-55
2023/05/12 02:43:36;;;;;;;58.03;32.20;;;13.50;99.90;;;;;;4994691;28;20124;-56
2023/05/12 02:46:02;;;;;;;52.88;33.20;;;13.60;99.90;;;;;;5012943;28;20029;-55
2023/05/12 02:48:27;;;;;;;52.85;33.42;;;13.70;99.90;;;;;;5008382;28;20397;-56
2023/05/12 02:50:53;;;;;;;48.03;30.90;;;13.70;99.90;;;;;;5003091;28;20034;-56
2023/05/12 02:53:18;;;;;;;49.20;31.67;;;13.90;99.90;;;;;;5006569;28;20587;-56
2023/05/12 02:55:44;;;;;;;46.25;30.45;;;13.80;99.90;;;;;;4986716;28;20029;-56
2023/05/12 02:58:10;;;;;;;42.28;27.65;;;13.90;99.90;;;;;;5001143;28;20033;-56
2023/05/12 03:00:36;;;;;;;40.03;28.23;;;14.00;99.90;;;;;;5006213;28;21168;-56
2023/05/12 03:03:01;;;;;;;46.70;27.63;;;14.10;99.90;;;;;;5005874;28;20035;-54
2023/05/12 03:05:27;;;;;;;35.97;26.40;;;14.20;99.90;;;;;;5008651;28;20037;-56
2023/05/12 03:07:52;;;;;;;35.05;25.05;;;14.20;99.90;;;;;;5011168;28;20040;-56
2023/05/12 03:10:18;;;;;;;35.08;25.60;;;14.30;99.90;;;;;;5002533;28;20038;-56
2023/05/12 03:12:44;;;;;;;34.80;25.38;;;14.40;99.90;;;;;;5001220;28;20172;-56
2023/05/12 03:15:10;;;;;;;35.67;24.65;;;14.30;99.90;;;;;;5007232;28;20037;-56
2023/05/12 03:17:35;;;;;;;31.20;24.80;;;14.50;99.90;;;;;;4999090;28;20548;-56
2023/05/12 03:20:02;;;;;;;33.97;25.23;;;14.70;99.90;;;;;;5007441;28;20052;-56
2023/05/12 03:22:28;;;;;;;34.92;24.77;;;14.20;99.90;;;;;;4999115;28;20831;-56
2023/05/12 03:24:53;;;;;;;33.72;24.20;;;14.20;99.90;;;;;;5003597;28;20030;-57
2023/05/12 03:27:19;;;;;;;34.80;24.58;;;14.10;99.90;;;;;;5009920;28;20030;-57
2023/05/12 03:29:45;;;;;;;31.35;23.63;;;14.10;99.90;;;;;;5012619;28;20037;-57
2023/05/12 03:32:11;;;;;;;30.80;22.25;;;14.20;99.90;;;;;;4974116;28;20406;-57
2023/05/12 03:34:36;;;;;;;26.95;20.13;;;14.10;99.90;;;;;;5008020;28;20504;-56
2023/05/12 03:37:02;;;;;;;22.40;17.15;;;14.10;99.90;;;;;;5011665;28;20069;-56
2023/05/12 03:39:27;;;;;;;20.50;16.55;;;14.00;99.90;;;;;;5004895;28;20038;-57
2023/05/12 03:41:53;;;;;;;21.75;16.52;;;14.10;99.90;;;;;;5011314;28;20036;-56
2023/05/12 03:44:18;;;;;;;23.80;16.27;;;14.00;99.90;;;;;;5006266;28;20545;-56
2023/05/12 03:46:44;;;;;;;19.42;14.30;;;14.00;99.90;;;;;;5001229;28;20405;-56
2023/05/12 03:49:10;;;;;;;19.67;13.80;;;14.20;99.90;;;;;;5003806;28;20161;-56
2023/05/12 03:51:35;;;;;;;17.60;13.75;;;14.10;99.90;;;;;;5004689;28;20401;-57
2023/05/12 03:54:01;;;;;;;16.65;12.15;;;14.00;99.90;;;;;;4989681;28;20050;-57
2023/05/12 03:56:27;;;;;;;18.95;13.05;;;14.10;99.90;;;;;;4996509;28;20061;-57
2023/05/12 03:58:53;;;;;;;14.82;11.35;;;14.30;99.90;;;;;;4998552;28;20038;-56
2023/05/12 04:01:19;;;;;;;14.40;10.68;;;14.20;99.90;;;;;;5012773;28;20092;-56
2023/05/12 04:03:44;;;;;;;15.88;10.90;;;13.90;99.90;;;;;;5010742;28;20116;-56
2023/05/12 04:06:10;;;;;;;13.82;10.02;;;14.10;99.90;;;;;;5003534;28;20082;-57
2023/05/12 04:08:36;;;;;;;12.60;8.98;;;14.20;99.90;;;;;;5007595;28;20037;-57
2023/05/12 04:11:02;;;;;;;14.20;8.82;;;14.00;99.90;;;;;;4999609;28;20700;-56
2023/05/12 04:13:28;;;;;;;10.80;8.50;;;14.20;99.90;;;;;;5004941;28;20045;-57
2023/05/12 04:15:55;;;;;;;10.23;7.93;;;14.40;99.90;;;;;;5002381;28;20335;-57
2023/05/12 04:18:21;;;;;;;9.43;7.22;;;14.10;99.90;;;;;;5002276;28;20033;-57
2023/05/12 04:20:46;;;;;;;9.05;7.65;;;14.10;99.90;;;;;;5005954;28;20052;-57
2023/05/12 04:23:14;;;;;;;11.02;7.70;;;14.00;99.90;;;;;;5004327;28;20030;-56
2023/05/12 04:25:40;;;;;;;10.65;7.88;;;14.00;99.90;;;;;;5003192;28;20033;-56
2023/05/12 04:28:06;;;;;;;13.43;9.32;;;14.00;99.90;;;;;;5004150;28;20571;-56
2023/05/12 04:30:32;;;;;;;10.82;8.98;;;14.20;99.90;;;;;;5001697;28;20038;-56
2023/05/12 04:32:57;;;;;;;13.27;10.10;;;14.00;99.90;;;;;;4991781;28;20555;-56
2023/05/12 04:35:23;;;;;;;13.00;10.60;;;14.00;99.90;;;;;;5000555;28;20031;-57
2023/05/12 04:37:49;;;;;;;13.40;11.07;;;14.00;99.90;;;;;;4988707;28;20129;-57
2023/05/12 04:40:15;;;;;;;17.42;12.23;;;14.10;99.90;;;;;;5008532;28;20029;-55
2023/05/12 04:42:40;;;;;;;21.88;13.15;;;14.10;99.90;;;;;;5007001;28;20026;-56
2023/05/12 04:45:06;;;;;;;18.00;12.57;;;14.40;99.90;;;;;;5004112;28;20037;-57
2023/05/12 04:47:32;;;;;;;18.80;12.85;;;14.10;99.90;;;;;;5005336;28;20515;-57
2023/05/12 04:49:58;;;;;;;20.10;13.02;;;14.30;99.90;;;;;;5011045;28;20029;-57
2023/05/12 04:52:23;;;;;;;20.63;12.20;;;14.20;99.90;;;;;;4987279;28;20026;-57
2023/05/12 04:54:49;;;;;;;16.05;10.25;;;14.10;99.90;;;;;;4996047;28;20069;-57
2023/05/12 04:57:15;;;;;;;15.57;9.95;;;13.80;99.90;;;;;;4999722;28;20483;-57
2023/05/12 04:59:43;;;;;;;13.95;8.63;;;14.20;99.90;;;;;;5001329;28;20129;-57
2023/05/12 05:02:10;;;;;;;9.77;6.95;;;14.10;99.90;;;;;;5000856;28;20045;-57
2023/05/12 05:04:36;;;;;;;7.45;6.30;;;13.60;99.90;;;;;;4999648;28;20042;-57
2023/05/12 05:07:02;;;;;;;8.48;5.70;;;14.00;99.90;;;;;;4996180;28;20492;-56
2023/05/12 05:09:28;;;;;;;9.85;5.88;;;14.00;99.90;;;;;;5002896;28;20074;-55
2023/05/12 05:11:54;;;;;;;7.72;5.05;;;14.10;99.90;;;;;;4972388;28;20030;-55
2023/05/12 05:14:19;;;;;;;8.55;4.93;;;14.10;99.90;;;;;;5011987;28;20041;-54
2023/05/12 05:16:45;;;;;;;6.88;5.07;;;14.10;99.90;;;;;;5005177;28;20033;-55
2023/05/12 05:19:12;;;;;;;10.07;5.72;;;14.10;99.90;;;;;;5008966;28;20621;-55
2023/05/12 05:21:37;;;;;;;6.43;4.82;;;14.20;99.90;;;;;;5013666;28;20033;-55
2023/05/12 05:24:03;;;;;;;8.15;5.03;;;14.00;99.90;;;;;;5004862;28;20034;-55
2023/05/12 05:26:29;;;;;;;8.30;4.50;;;14.20;99.90;;;;;;4996531;28;20049;-55
2023/05/12 05:28:54;;;;;;;8.70;5.07;;;14.20;99.90;;;;;;5003837;28;20112;-55
2023/05/12 05:31:20;;;;;;;6.90;4.68;;;14.20;99.90;;;;;;5008308;28;20038;-55
2023/05/12 05:33:46;;;;;;;7.68;4.32;;;14.20;99.90;;;;;;5011877;28;20527;-55
2023/05/12 05:36:12;;;;;;;7.50;4.60;;;14.20;99.90;;;;;;5009260;28;20418;-55
2023/05/12 05:38:37;;;;;;;6.68;4.63;;;14.20;99.90;;;;;;4997526;28;20099;-55
2023/05/12 05:41:04;;;;;;;8.82;4.38;;;14.20;99.90;;;;;;5004359;28;20046;-55
2023/05/12 05:43:30;;;;;;;5.35;4.00;;;14.50;99.90;;;;;;5010998;28;20045;-55
2023/05/12 05:45:58;;;;;;;6.95;3.90;;;14.30;99.90;;;;;;5008507;28;20369;-55
2023/05/12 05:48:24;;;;;;;4.50;3.58;;;14.50;99.90;;;;;;5004308;28;20045;-55
2023/05/12 05:50:51;;;;;;;6.43;3.78;;;14.40;99.90;;;;;;4991397;28;20037;-55
2023/05/12 05:53:17;;;;;;;6.13;3.40;;;14.00;99.90;;;;;;5008171;28;20036;-55
2023/05/12 05:55:44;;;;;;;4.57;3.58;;;14.90;99.90;;;;;;5012838;28;20121;-55
2023/05/12 05:58:09;;;;;;;5.57;3.75;;;14.50;99.90;;;;;;5011087;28;20048;-55
2023/05/12 06:00:35;;;;;;;4.95;3.67;;;14.40;99.90;;;;;;5006980;28;20827;-55
2023/05/12 06:03:00;;;;;;;6.70;4.10;;;14.40;99.90;;;;;;5015164;28;20069;-55
2023/05/12 06:05:26;;;;;;;7.30;4.80;;;13.90;99.90;;;;;;4989852;28;20343;-55
2023/05/12 06:07:52;;;;;;;7.50;4.80;;;14.50;99.90;;;;;;5004015;28;20250;-55
2023/05/12 06:10:17;;;;;;;8.30;5.25;;;14.40;99.90;;;;;;5007233;28;20700;-55
2023/05/12 06:12:43;;;;;;;9.15;5.68;;;14.50;99.90;;;;;;5007517;28;20065;-55
2023/05/12 06:15:09;;;;;;;5.65;4.95;;;14.50;99.90;;;;;;5005100;28;20061;-55
2023/05/12 06:17:35;;;;;;;7.00;4.30;;;14.40;99.90;;;;;;5002095;28;20425;-55
2023/05/12 06:20:01;;;;;;;8.48;4.13;;;14.20;99.90;;;;;;5002535;28;20084;-55
2023/05/12 06:22:27;;;;;;;9.02;4.57;;;14.50;99.90;;;;;;5005208;28;20038;-55
2023/05/12 06:24:52;;;;;;;8.25;4.32;;;14.30;99.90;;;;;;5007920;28;20449;-55
2023/05/12 06:27:18;;;;;;;7.78;4.80;;;14.50;99.90;;;;;;5007458;28;20180;-56
2023/05/12 06:29:43;;;;;;;6.22;4.13;;;14.50;99.90;;;;;;5009956;28;20062;-55
2023/05/12 06:32:09;;;;;;;7.28;4.28;;;14.60;99.90;;;;;;5012719;28;20042;-55
2023/05/12 06:34:35;;;;;;;6.90;4.13;;;15.00;99.90;;;;;;5011752;28;20060;-55
2023/05/12 06:37:01;;;;;;;9.93;4.18;;;14.80;99.90;;;;;;5010603;28;20038;-55
2023/05/12 06:39:26;;;;;;;7.18;3.50;;;14.80;99.90;;;;;;5012164;28;20315;-55
2023/05/12 06:41:52;;;;;;;7.07;3.72;;;14.80;99.90;;;;;;5005729;28;20037;-55
2023/05/12 06:44:17;;;;;;;4.45;3.30;;;14.80;99.90;;;;;;4996594;28;20099;-55
2023/05/12 06:46:43;;;;;;;5.55;3.38;;;14.80;99.90;;;;;;4997500;28;20038;-55
2023/05/12 06:49:08;;;;;;;6.43;4.05;;;14.70;99.90;;;;;;5003245;28;20104;-56
2023/05/12 06:51:34;;;;;;;5.22;3.95;;;14.80;99.90;;;;;;5006109;28;20061;-55
2023/05/12 06:54:00;;;;;;;10.75;4.68;;;14.70;99.90;;;;;;4991923;28;20123;-56
2023/05/12 06:56:28;;;;;;;6.00;3.90;;;14.80;99.90;;;;;;5008197;28;20108;-56
2023/05/12 06:58:59;;;;;;;6.78;4.50;;;15.00;99.90;;;;;;5005644;28;20521;-56
2023/05/12 07:01:26;;;;;;;8.50;4.20;;;14.80;99.90;;;;;;5005483;28;20042;-55
2023/05/12 07:03:51;;;;;;;5.88;4.35;;;14.80;99.90;;;;;;4997917;28;20082;-55
2023/05/12 07:06:17;;;;;;;13.45;11.52;;;14.80;99.90;;;;;;4982386;28;20089;-55
2023/05/12 07:08:42;;;;;;;21.80;15.77;;;14.80;99.90;;;;;;5004186;28;20493;-55
2023/05/12 07:11:08;;;;;;;6.65;5.30;;;14.90;99.90;;;;;;5004199;28;20059;-55
2023/05/12 07:13:33;;;;;;;8.48;5.22;;;14.90;99.90;;;;;;5008744;28;20088;-55
2023/05/12 07:15:59;;;;;;;8.27;4.82;;;14.90;99.90;;;;;;5008864;28;20049;-55
2023/05/12 07:18:25;;;;;;;8.05;4.85;;;14.80;99.90;;;;;;4993652;28;20053;-56
2023/05/12 07:20:51;;;;;;;8.40;4.60;;;15.00;99.90;;;;;;5001144;28;20437;-55
2023/05/12 07:23:16;;;;;;;7.55;4.40;;;14.90;99.90;;;;;;5003128;28;20134;-56
2023/05/12 07:25:42;;;;;;;6.40;4.65;;;15.00;99.90;;;;;;5002538;28;20671;-56
2023/05/12 07:28:08;;;;;;;7.00;4.15;;;15.10;99.90;;;;;;5001636;28;20426;-55
2023/05/12 07:30:33;;;;;;;4.82;3.90;;;15.10;99.90;;;;;;5005888;28;20489;-56
2023/05/12 07:33:00;;;;;;;5.75;3.75;;;15.00;99.90;;;;;;5006809;28;20445;-56
2023/05/12 07:35:26;;;;;;;5.65;4.53;;;15.20;99.90;;;;;;5001719;28;20034;-56
2023/05/12 07:37:52;;;;;;;5.22;4.30;;;15.30;99.90;;;;;;5004363;28;20034;-56
2023/05/12 07:40:18;;;;;;;6.40;4.40;;;15.20;99.90;;;;;;5005248;28;20046;-55
2023/05/12 07:42:43;;;;;;;7.28;4.93;;;15.30;99.90;;;;;;5000270;28;20040;-56
2023/05/12 07:45:09;;;;;;;6.22;4.35;;;14.90;99.90;;;;;;4999849;28;20034;-56
2023/05/12 07:47:35;;;;;;;4.80;4.30;;;15.30;99.90;;;;;;5002107;28;20107;-55
2023/05/12 07:50:01;;;;;;;8.32;4.65;;;15.50;99.90;;;;;;5009477;28;20091;-56
2023/05/12 07:52:26;;;;;;;5.57;4.22;;;15.60;99.90;;;;;;5005425;28;20058;-55
2023/05/12 07:54:52;;;;;;;9.25;4.82;;;15.40;99.90;;;;;;5001073;28;20046;-56
2023/05/12 07:57:17;;;;;;;6.50;4.47;;;15.20;99.90;;;;;;5005336;28;20054;-55
2023/05/12 07:59:43;;;;;;;8.52;4.80;;;15.20;99.90;;;;;;5007914;28;20112;-55
2023/05/12 08:02:08;;;;;;;8.70;4.50;;;15.40;99.90;;;;;;5004132;28;20042;-56
2023/05/12 08:04:34;;;;;;;8.43;4.35;;;15.60;99.90;;;;;;5013359;28;20091;-56
2023/05/12 08:07:00;;;;;;;5.80;3.85;;;15.20;99.90;;;;;;5001929;28;20346;-56
2023/05/12 08:09:25;;;;;;;9.10;4.00;;;15.60;99.90;;;;;;4988322;28;20038;-56
2023/05/12 08:11:51;;;;;;;5.38;3.15;;;15.50;99.90;;;;;;4998807;28;20034;-56
2023/05/12 08:14:16;;;;;;;11.13;4.68;;;15.60;99.90;;;;;;5007869;28;20040;-56
2023/05/12 08:16:44;;;;;;;3.97;3.47;;;15.50;99.90;;;;;;5003014;28;20041;-56
2023/05/12 08:19:11;;;;;;;4.40;3.40;;;15.50;99.90;;;;;;5000204;28;20038;-56
2023/05/12 08:21:37;;;;;;;5.07;3.40;;;15.50;99.90;;;;;;5002100;28;20037;-56
2023/05/12 08:24:02;;;;;;;4.90;3.05;;;15.50;99.90;;;;;;5004428;28;20133;-56
2023/05/12 08:26:28;;;;;;;10.80;4.15;;;15.80;99.90;;;;;;5003038;28;20116;-56
2023/05/12 08:28:54;;;;;;;6.57;3.85;;;15.60;99.90;;;;;;5003950;28;20030;-56
2023/05/12 08:31:19;;;;;;;5.75;2.83;;;15.60;99.90;;;;;;5001073;28;20042;-56
2023/05/12 08:33:45;;;;;;;4.65;3.45;;;15.60;99.90;;;;;;4987770;28;20041;-56
2023/05/12 08:36:11;;;;;;;4.38;3.03;;;15.60;99.90;;;;;;5004142;28;20112;-56
2023/05/12 08:38:36;;;;;;;7.28;3.58;;;15.50;99.90;;;;;;5003164;28;20107;-58
2023/05/12 08:41:15;;;;;;;5.20;3.05;;;15.80;99.90;;;;;;5004545;28;20041;-58
2023/05/12 08:43:48;;;;;;;3.67;2.53;;;16.00;99.90;;;;;;5012542;28;20061;-58
2023/05/12 08:46:14;;;;;;;;;;;15.90;99.90;;;;;;5002867;28;20081;-58
2023/05/12 08:48:40;;;;;;;14.55;7.55;;;16.00;99.90;;;;;;5003778;28;20436;-63
2023/05/12 08:51:11;;;;;;;13.93;7.53;;;16.20;99.90;;;;;;4985961;28;20041;-63
2023/05/12 08:53:38;;;;;;;9.70;6.05;;;16.50;99.90;;;;;;4999916;28;20401;-62
2023/05/12 08:56:08;;;;;;;9.45;5.50;;;16.30;99.90;;;;;;5006038;28;20042;-63
2023/05/12 08:58:37;;;;;;;7.45;4.05;;;16.40;99.90;;;;;;5008461;28;20044;-63
2023/05/12 09:01:04;;;;;;;5.03;3.20;;;15.80;99.90;;;;;;5005392;28;20033;-62
2023/05/12 09:03:30;;;;;;;6.20;3.53;;;16.30;99.90;;;;;;5004552;28;20069;-63
2023/05/12 09:05:57;;;;;;;7.97;3.75;;;16.10;99.90;;;;;;5002039;28;20558;-63
2023/05/12 09:08:25;;;;;;;5.90;3.78;;;16.30;99.90;;;;;;5001766;28;20103;-63
2023/05/12 09:10:53;;;;;;;6.55;3.75;;;16.50;99.90;;;;;;5002891;28;20045;-63
2023/05/12 09:13:27;;;;;;;7.38;3.80;;;16.70;99.90;;;;;;5003325;28;20038;-63
2023/05/12 09:15:55;;;;;;;6.50;3.90;;;16.40;99.90;;;;;;4998196;28;20456;-63
2023/05/12 09:18:21;;;;;;;5.82;3.25;;;16.60;99.90;;;;;;4996931;28;20034;-63
2023/05/12 09:20:47;;;;;;;7.07;4.03;;;16.80;99.90;;;;;;4994274;28;20053;-63
2023/05/12 09:23:14;;;;;;;9.15;3.90;;;16.50;99.90;;;;;;4997498;28;20041;-62
2023/05/12 09:25:39;;;;;;;8.43;4.78;;;17.10;99.90;;;;;;5005161;28;20029;-63
2023/05/12 09:28:05;;;;;;;7.45;3.88;;;17.20;99.90;;;;;;5008108;28;20041;-63
2023/05/12 09:30:34;;;;;;;7.55;4.25;;;17.10;99.90;;;;;;4996208;28;20041;-63
2023/05/12 09:33:12;;;;;;;6.47;4.15;;;17.20;99.90;;;;;;5001490;28;20076;-63
2023/05/12 09:35:45;;;;;;;7.10;4.18;;;17.30;99.90;;;;;;4999513;28;20318;-64
2023/05/12 09:38:13;;;;;;;6.85;4.40;;;;;;;;;;5001129;28;20088;-63
2023/05/12 09:40:41;;;;;;;5.82;4.35;;;;;;;;;;5002080;28;20036;-63
2023/05/12 09:43:07;;;;;;;7.03;3.92;;;17.40;99.90;;;;;;4998689;28;20080;-63
2023/05/12 09:45:35;;;;;;;5.25;3.22;;;17.20;99.90;;;;;;4998246;28;20049;-63
2023/05/12 09:48:16;;;;;;;5.60;3.50;;;;;;;;;;4981179;28;20089;-64
2023/05/12 09:50:51;;;;;;;5.75;4.00;;;17.50;99.90;;;;;;5002740;28;20148;-63
2023/05/12 09:53:19;;;;;;;4.75;2.83;;;;;;;;;;4996738;28;20042;-63
2023/05/12 09:55:48;;;;;;;5.00;2.83;;;17.60;99.90;;;;;;4980305;28;20113;-63
2023/05/12 09:58:16;;;;;;;4.28;2.75;;;17.60;99.90;;;;;;5003954;28;20124;-64
2023/05/12 10:00:42;;;;;;;4.85;3.53;;;17.50;99.90;;;;;;5004964;28;20030;-64
2023/05/12 10:03:16;;;;;;;6.15;3.80;;;17.60;99.90;;;;;;5006213;28;20038;-63
2023/05/12 10:05:56;;;;;;;6.20;3.92;;;17.70;99.90;;;;;;5007218;28;20421;-64
2023/05/12 10:08:47;;;;;;;6.70;2.95;;;17.20;99.90;;;;;;4998573;28;20136;-64
2023/05/12 10:11:13;;;;;;;6.05;2.72;;;17.80;99.90;;;;;;5009770;28;20033;-64
2023/05/12 10:13:39;;;;;;;6.55;2.95;;;17.60;99.90;;;;;;5013547;28;20413;-64
2023/05/12 10:16:06;;;;;;;8.52;3.00;;;17.70;99.90;;;;;;5001993;28;20048;-64
2023/05/12 10:18:33;;;;;;;5.45;2.65;;;17.90;99.90;;;;;;5000639;28;20049;-64
2023/05/12 10:21:00;;;;;;;3.75;2.58;;;17.90;99.90;;;;;;4999058;28;20100;-64
2023/05/12 10:23:26;;;;;;;4.47;2.78;;;17.90;99.90;;;;;;4996699;28;20100;-64
2023/05/12 10:25:57;;;;;;;4.75;2.80;;;18.00;99.90;;;;;;5005674;28;20490;-63
2023/05/12 10:28:23;;;;;;;3.22;2.60;;;17.90;99.90;;;;;;5001757;28;20113;-64
2023/05/12 10:30:50;;;;;;;5.18;2.80;;;17.90;99.90;;;;;;5006212;28;20417;-64
2023/05/12 10:33:16;;;;;;;3.90;2.80;;;17.90;99.90;;;;;;5000428;28;20057;-64
2023/05/12 10:35:42;;;;;;;4.72;2.90;;;18.00;99.90;;;;;;5005685;28;20057;-64
2023/05/12 10:38:10;;;;;;;4.70;2.97;;;;;;;;;;5006261;28;20114;-64
2023/05/12 10:40:48;;;;;;;3.88;2.53;;;18.10;99.90;;;;;;4989754;28;20065;-63
2023/05/12 10:43:22;;;;;;;3.17;2.65;;;17.80;99.90;;;;;;5003523;28;20069;-63
2023/05/12 10:46:06;;;;;;;5.45;4.38;;;17.80;99.90;;;;;;5007790;28;20057;-64
2023/05/12 10:48:31;;;;;;;;;;;18.00;99.90;;;;;;4999701;28;20501;-64
2023/05/12 10:51:06;;;;;;;3.70;2.53;;;18.30;99.90;;;;;;5003851;28;19920;-64
2023/05/12 10:53:34;;;;;;;2.97;2.40;;;;;;;;;;5004166;28;20155;-64
2023/05/12 10:56:04;;;;;;;3.72;2.47;;;18.00;99.90;;;;;;4999539;28;20038;-64
2023/05/12 10:58:31;;;;;;;4.82;2.38;;;;;;;;;;4999074;28;20058;-63
2023/05/12 11:01:06;;;;;;;8.48;2.90;;;18.00;99.90;;;;;;4996159;28;20120;-64
2023/05/12 11:03:32;;;;;;;4.47;2.35;;;;;;;;;;4994911;28;20040;-61
2023/05/12 11:06:05;;;;;;;5.88;2.78;;;;;;;;;;4999026;28;20468;-61
2023/05/12 11:08:33;;;;;;;3.65;2.50;;;;;;;;;;5000170;28;20509;-61
2023/05/12 11:11:00;;;;;;;4.68;2.60;;;;;;;;;;4995058;28;20036;-61
2023/05/12 11:13:28;;;;;;;7.72;2.42;;;;;;;;;;4998651;28;20073;-61
2023/05/12 11:15:57;;;;;;;5.32;2.50;;;;;;;;;;4998683;28;20442;-61
2023/05/12 11:18:24;;;;;;;3.58;2.47;;;;;;;;;;4996366;28;20512;-61
2023/05/12 11:20:51;;;;;;;4.97;2.38;;;;;;;;;;4997806;28;21137;-61
2023/05/12 11:23:28;;;;;;;3.75;2.55;;;;;;;;;;4999099;28;20091;-60
2023/05/12 11:25:54;;;;;;;4.70;2.40;;;18.80;99.90;;;;;;4999449;28;20060;-61
2023/05/12 11:28:20;;;;;;;5.40;2.60;;;19.00;99.90;;;;;;4995830;28;20239;-61
2023/05/12 11:30:50;;;;;;;7.35;2.47;;;19.00;99.90;;;;;;4997878;28;20125;-61
2023/05/12 11:33:23;;;;;;;6.35;2.55;;;;;;;;;;4996304;28;20571;-61
2023/05/12 11:35:49;;;;;;;6.13;2.70;;;18.80;99.90;;;;;;4996674;28;20038;-61
2023/05/12 11:38:23;;;;;;;4.13;2.47;;;;;;;;;;5001562;28;20494;-61
2023/05/12 11:40:48;;;;;;;4.63;2.72;;;19.00;99.90;;;;;;5002819;28;20610;-61
2023/05/12 11:43:19;;;;;;;4.95;2.67;;;19.10;99.90;;;;;;5003535;28;20030;-62
2023/05/12 11:45:45;;;;;;;3.85;2.72;;;19.00;99.90;;;;;;4999274;28;20113;-63
2023/05/12 11:48:13;;;;;;;5.68;3.22;;;;;;;;;;4996312;28;20128;-62
2023/05/12 11:50:40;;;;;;;3.75;2.55;;;;;;;;;;4996282;28;20095;-60
2023/05/12 11:53:14;;;;;;;5.07;2.75;;;;;;;;;;5009950;28;20032;-61
2023/05/12 11:55:54;;;;;;;3.75;2.72;;;;;;;;;;4996554;28;20049;-61
2023/05/12 11:58:25;;;;;;;3.65;2.65;;;;;;;;;;5000488;28;20034;-61
2023/05/12 12:00:52;;;;;;;4.60;2.78;;;;;;;;;;5000182;28;20383;-61
2023/05/12 12:03:19;;;;;;;4.93;2.67;;;;;;;;;;4994906;28;20062;-61
2023/05/12 12:05:58;;;;;;;5.55;3.10;;;;;;;;;;4992344;28;20501;-61
2023/05/12 12:08:25;;;;;;;4.75;2.83;;;;;;;;;;4992859;28;20034;-60
2023/05/12 12:10:51;;;;;;;3.67;2.80;;;;;;;;;;4992356;28;20029;-61
2023/05/12 12:13:25;;;;;;;4.57;3.20;;;;;;;;;;4985986;28;20112;-61
2023/05/12 12:15:52;;;;;;;6.78;2.92;;;;;;;;;;5005020;28;20084;-61
2023/05/12 12:18:18;;;;;;;4.22;2.95;;;19.30;99.90;;;;;;5004789;28;20554;-61
2023/05/12 12:20:44;;;;;;;3.38;2.75;;;19.40;99.90;;;;;;5005408;28;20133;-61
2023/05/12 12:23:09;;;;;;;5.03;3.10;;;19.30;99.90;;;;;;5007152;28;20041;-63
2023/05/12 12:25:35;;;;;;;6.32;2.90;;;19.20;99.90;;;;;;5009738;28;22107;-63
2023/05/12 12:28:01;;;;;;;3.20;2.58;;;19.00;99.90;;;;;;5004036;28;20032;-63
2023/05/12 12:30:27;;;;;;;6.40;3.03;;;19.40;99.90;;;;;;5007525;28;20026;-63
2023/05/12 12:32:52;;;;;;;4.28;3.20;;;19.50;99.90;;;;;;4980969;28;20108;-63
2023/05/12 12:35:18;;;;;;;4.32;3.30;;;19.30;99.90;;;;;;5009804;28;20036;-63
2023/05/12 12:37:50;;;;;;;6.82;3.15;;;19.50;99.90;;;;;;5014171;28;20116;-63
2023/05/12 12:40:17;;;;;;;5.25;2.90;;;19.50;99.90;;;;;;5008049;28;20493;-63
2023/05/12 12:42:43;;;;;;;5.80;3.38;;;19.80;99.90;;;;;;5007610;28;20053;-63
2023/05/12 12:45:09;;;;;;;4.45;3.80;;;19.60;99.90;;;;;;5013397;28;20123;-63
2023/05/12 12:47:36;;;;;;;3.85;3.33;;;19.60;99.90;;;;;;5011114;28;20065;-63